Terminal Aerodrome Forecast
Issued by NWS Blacksburg, VA

Home | Current Version | Previous Version | Text Only | Print | Product List | Glossary On
Versions: 1 2 3 4 5 6 7 8 9 10 11 12 13 14 15 16 17 18 19 20 21 22 23 24 25 26 27 28 29 30
000
FTUS41 KRNK 031121
TAFDAN
TAF
KDAN 031121Z 0312/0412 24003KT 5SM BR SKC
     FM031400 24004KT P6SM SKC
     FM040000 00000KT P6SM SCT250
     FM040600 VRB02KT P6SM BKN120=

USA.gov is the U.S. government's official web portal to all federal, state and local government web resources and services.